South Newton, North Carolina
Current Conditions -  °F | °C
As of 6:53 PM on Sunday 21 Dec 2014 (Local Time) from KHKY Reporting Station
Haze Haze  
Wind Chill: 42°   Ceiling: 2000
Heat Index: 44°   Visibility: 8mi
Dew Point: 37°   Wind: 5mph
Humidity: 76%   Direction: NA
Pressure: 30.2"   Gusts: NA
Location:  35.6271°N, 81.2599°W
Report Text: KHKY 212353Z VRB04KT 8SM BR OVC020 07/03 A3020 RMK AO2 SLP219 T00670028 10072 20067 53005
Loading
Personal Weather Stations






























Interactive Weather Map New forecast layout! Learn more

10-Day Weather Forecast

Advertisements
Track Severe Weather on mobile